Penkridge, United Kingdom
Current Conditions -  °F | °C
As of 2:50 AM on Saturday 29 Nov 2014 (Local Time) from EGOS Reporting Station
Haze Haze  
Wind Chill: 50°   Ceiling: 600
Heat Index: 50°   Visibility: 2.8mi
Dew Point: 48°   Wind: 5mph
Humidity: 94%   Direction: 60°ENE
Pressure: 29.77"   Gusts: NA
Location:  52.73°N, 2.12°W
Report Text: EGOS 290250Z AUTO 06004KT 4600 BR OVC006/// 10/09 Q1008 RERA
Loading
Personal Weather Stations






























Interactive Weather Map New forecast layout! Learn more

10-Day Weather Forecast

Advertisements
Track Severe Weather on mobile